sensor_id;sensor_type;location;lat;lon;timestamp;temperature;humidity
25825;DHT22;13658;44.534;18.694;2022-10-04T00:01:29;7.80;99.90
25825;DHT22;13658;44.534;18.694;2022-10-04T00:04:09;7.80;99.90
25825;DHT22;13658;44.534;18.694;2022-10-04T00:06:36;7.80;99.90
25825;DHT22;13658;44.534;18.694;2022-10-04T00:09:17;7.80;99.90
25825;DHT22;13658;44.534;18.694;2022-10-04T00:11:46;7.80;99.90
25825;DHT22;13658;44.534;18.694;2022-10-04T00:14:25;7.70;99.90
25825;DHT22;13658;44.534;18.694;2022-10-04T00:16:53;7.70;99.90
25825;DHT22;13658;44.534;18.694;2022-10-04T00:24:28;7.60;99.90
25825;DHT22;13658;44.534;18.694;2022-10-04T00:27:20;7.40;99.90
25825;DHT22;13658;44.534;18.694;2022-10-04T00:30:20;7.40;99.90
25825;DHT22;13658;44.534;18.694;2022-10-04T00:33:32;7.40;99.90
25825;DHT22;13658;44.534;18.694;2022-10-04T00:35:59;7.20;99.90
25825;DHT22;13658;44.534;18.694;2022-10-04T00:38:25;7.00;99.90
25825;DHT22;13658;44.534;18.694;2022-10-04T00:41:03;7.00;99.90
25825;DHT22;13658;44.534;18.694;2022-10-04T00:43:41;7.00;99.90
25825;DHT22;13658;44.534;18.694;2022-10-04T00:46:22;7.10;99.90
25825;DHT22;13658;44.534;18.694;2022-10-04T00:48:59;7.20;99.90
25825;DHT22;13658;44.534;18.694;2022-10-04T00:56:47;7.20;99.90
25825;DHT22;13658;44.534;18.694;2022-10-04T01:01:51;7.10;99.90
25825;DHT22;13658;44.534;18.694;2022-10-04T01:04:30;7.00;99.90
25825;DHT22;13658;44.534;18.694;2022-10-04T01:07:03;6.90;99.90
25825;DHT22;13658;44.534;18.694;2022-10-04T01:09:33;7.00;99.90
25825;DHT22;13658;44.534;18.694;2022-10-04T01:13:06;6.90;99.90
25825;DHT22;13658;44.534;18.694;2022-10-04T01:15:21;7.00;99.90
25825;DHT22;13658;44.534;18.694;2022-10-04T01:20:49;7.00;99.90
25825;DHT22;13658;44.534;18.694;2022-10-04T01:26:04;6.90;99.90
25825;DHT22;13658;44.534;18.694;2022-10-04T01:28:32;6.90;99.90
25825;DHT22;13658;44.534;18.694;2022-10-04T01:30:59;7.00;99.90
25825;DHT22;13658;44.534;18.694;2022-10-04T01:33:25;6.80;99.90
25825;DHT22;13658;44.534;18.694;2022-10-04T01:35:51;6.60;99.90
25825;DHT22;13658;44.534;18.694;2022-10-04T01:38:17;6.40;99.90
25825;DHT22;13658;44.534;18.694;2022-10-04T01:40:53;6.40;99.90
25825;DHT22;13658;44.534;18.694;2022-10-04T01:43:28;6.30;99.90
25825;DHT22;13658;44.534;18.694;2022-10-04T01:45:57;6.10;99.90
25825;DHT22;13658;44.534;18.694;2022-10-04T01:48:33;6.20;99.90
25825;DHT22;13658;44.534;18.694;2022-10-04T01:51:25;6.10;99.90
25825;DHT22;13658;44.534;18.694;2022-10-04T01:54:01;6.20;99.90
25825;DHT22;13658;44.534;18.694;2022-10-04T01:56:54;6.30;99.90
25825;DHT22;13658;44.534;18.694;2022-10-04T01:59:28;6.40;99.90
25825;DHT22;13658;44.534;18.694;2022-10-04T02:02:03;6.60;99.90
25825;DHT22;13658;44.534;18.694;2022-10-04T02:04:34;6.60;99.90
25825;DHT22;13658;44.534;18.694;2022-10-04T02:07:03;6.60;99.90
25825;DHT22;13658;44.534;18.694;2022-10-04T02:09:38;6.50;99.90
25825;DHT22;13658;44.534;18.694;2022-10-04T02:12:05;6.60;99.90
25825;DHT22;13658;44.534;18.694;2022-10-04T02:14:34;6.60;99.90
25825;DHT22;13658;44.534;18.694;2022-10-04T02:17:04;6.60;99.90
25825;DHT22;13658;44.534;18.694;2022-10-04T02:19:34;6.50;99.90
25825;DHT22;13658;44.534;18.694;2022-10-04T02:22:05;6.50;99.90
25825;DHT22;13658;44.534;18.694;2022-10-04T02:24:34;6.30;99.90
25825;DHT22;13658;44.534;18.694;2022-10-04T02:27:01;6.20;99.90
25825;DHT22;13658;44.534;18.694;2022-10-04T02:29:27;6.10;99.90
25825;DHT22;13658;44.534;18.694;2022-10-04T02:31:53;6.00;99.90
25825;DHT22;13658;44.534;18.694;2022-10-04T02:34:39;6.00;99.90
25825;DHT22;13658;44.534;18.694;2022-10-04T02:37:06;6.00;99.90
25825;DHT22;13658;44.534;18.694;2022-10-04T02:39:37;6.20;99.90
25825;DHT22;13658;44.534;18.694;2022-10-04T02:47:51;6.60;99.90
25825;DHT22;13658;44.534;18.694;2022-10-04T02:50:19;6.50;99.90
25825;DHT22;13658;44.534;18.694;2022-10-04T02:52:52;6.60;99.90
25825;DHT22;13658;44.534;18.694;2022-10-04T02:55:29;6.70;99.90
25825;DHT22;13658;44.534;18.694;2022-10-04T02:57:56;6.60;99.90
25825;DHT22;13658;44.534;18.694;2022-10-04T03:00:31;6.80;99.90
25825;DHT22;13658;44.534;18.694;2022-10-04T03:03:11;6.80;99.90
25825;DHT22;13658;44.534;18.694;2022-10-04T05:04:03;6.00;99.90
25825;DHT22;13658;44.534;18.694;2022-10-04T05:07:02;6.00;99.90
25825;DHT22;13658;44.534;18.694;2022-10-04T05:09:34;6.10;99.90
25825;DHT22;13658;44.534;18.694;2022-10-04T05:12:19;6.00;99.90
25825;DHT22;13658;44.534;18.694;2022-10-04T05:14:48;6.00;99.90
25825;DHT22;13658;44.534;18.694;2022-10-04T05:17:21;6.00;99.90
25825;DHT22;13658;44.534;18.694;2022-10-04T05:19:48;6.00;99.90
25825;DHT22;13658;44.534;18.694;2022-10-04T05:22:19;6.20;99.90
25825;DHT22;13658;44.534;18.694;2022-10-04T05:24:58;6.20;99.90
25825;DHT22;13658;44.534;18.694;2022-10-04T05:27:36;6.40;99.90
25825;DHT22;13658;44.534;18.694;2022-10-04T05:33:00;7.00;99.90
25825;DHT22;13658;44.534;18.694;2022-10-04T05:35:27;7.30;99.90
25825;DHT22;13658;44.534;18.694;2022-10-04T05:40:46;7.50;99.90
25825;DHT22;13658;44.534;18.694;2022-10-04T05:43:44;7.60;99.90
25825;DHT22;13658;44.534;18.694;2022-10-04T05:46:25;7.70;99.90
25825;DHT22;13658;44.534;18.694;2022-10-04T05:48:58;7.90;99.90
25825;DHT22;13658;44.534;18.694;2022-10-04T05:51:31;8.30;99.90
25825;DHT22;13658;44.534;18.694;2022-10-04T05:54:02;8.70;99.90
25825;DHT22;13658;44.534;18.694;2022-10-04T05:56:33;9.00;99.90
25825;DHT22;13658;44.534;18.694;2022-10-04T06:16:17;10.70;99.90
25825;DHT22;13658;44.534;18.694;2022-10-04T06:24:29;10.90;99.90
25825;DHT22;13658;44.534;18.694;2022-10-04T06:29:34;10.90;99.90
25825;DHT22;13658;44.534;18.694;2022-10-04T06:37:49;12.20;99.90
25825;DHT22;13658;44.534;18.694;2022-10-04T06:40:41;12.00;99.90
25825;DHT22;13658;44.534;18.694;2022-10-04T06:43:22;11.90;99.90
25825;DHT22;13658;44.534;18.694;2022-10-04T06:46:13;11.90;99.90
25825;DHT22;13658;44.534;18.694;2022-10-04T07:02:42;12.60;99.90
25825;DHT22;13658;44.534;18.694;2022-10-04T07:05:19;13.00;99.90
25825;DHT22;13658;44.534;18.694;2022-10-04T07:07:51;13.40;99.90
25825;DHT22;13658;44.534;18.694;2022-10-04T07:11:02;13.60;99.90
25825;DHT22;13658;44.534;18.694;2022-10-04T07:13:38;13.70;99.90
25825;DHT22;13658;44.534;18.694;2022-10-04T07:25:57;13.20;99.90
25825;DHT22;13658;44.534;18.694;2022-10-04T07:28:33;13.50;99.90
25825;DHT22;13658;44.534;18.694;2022-10-04T07:31:30;13.70;99.90
25825;DHT22;13658;44.534;18.694;2022-10-04T07:33:59;13.80;99.90
25825;DHT22;13658;44.534;18.694;2022-10-04T07:36:47;13.70;99.90
25825;DHT22;13658;44.534;18.694;2022-10-04T07:39:27;13.80;99.90
25825;DHT22;13658;44.534;18.694;2022-10-04T07:41:57;13.90;99.90
25825;DHT22;13658;44.534;18.694;2022-10-04T07:44:38;14.00;99.90
25825;DHT22;13658;44.534;18.694;2022-10-04T07:47:18;14.10;99.90
25825;DHT22;13658;44.534;18.694;2022-10-04T07:49:45;14.10;99.90
25825;DHT22;13658;44.534;18.694;2022-10-04T07:55:36;14.20;99.90
25825;DHT22;13658;44.534;18.694;2022-10-04T08:00:59;14.50;99.90
25825;DHT22;13658;44.534;18.694;2022-10-04T08:03:57;14.50;99.90
25825;DHT22;13658;44.534;18.694;2022-10-04T08:06:45;14.10;99.90
25825;DHT22;13658;44.534;18.694;2022-10-04T08:12:20;14.60;99.90
25825;DHT22;13658;44.534;18.694;2022-10-04T08:26:39;14.50;99.90
25825;DHT22;13658;44.534;18.694;2022-10-04T08:32:19;14.80;99.90
25825;DHT22;13658;44.534;18.694;2022-10-04T08:49:25;15.10;99.90
25825;DHT22;13658;44.534;18.694;2022-10-04T08:58:04;14.80;99.90
25825;DHT22;13658;44.534;18.694;2022-10-04T09:06:47;14.70;99.90
25825;DHT22;13658;44.534;18.694;2022-10-04T09:20:20;16.80;99.90
25825;DHT22;13658;44.534;18.694;2022-10-04T09:22:47;16.40;99.90
25825;DHT22;13658;44.534;18.694;2022-10-04T09:42:38;16.90;99.90
25825;DHT22;13658;44.534;18.694;2022-10-04T09:48:28;16.80;99.90
25825;DHT22;13658;44.534;18.694;2022-10-04T09:58:57;17.10;99.90
25825;DHT22;13658;44.534;18.694;2022-10-04T10:07:34;16.80;99.90
25825;DHT22;13658;44.534;18.694;2022-10-04T10:25:10;16.70;99.90
25825;DHT22;13658;44.534;18.694;2022-10-04T10:47:52;15.90;99.90
25825;DHT22;13658;44.534;18.694;2022-10-04T10:56:54;15.80;99.90
25825;DHT22;13658;44.534;18.694;2022-10-04T11:02:35;16.20;99.90
25825;DHT22;13658;44.534;18.694;2022-10-04T11:44:33;16.90;99.90
25825;DHT22;13658;44.534;18.694;2022-10-04T12:09:16;17.60;99.90
25825;DHT22;13658;44.534;18.694;2022-10-04T12:11:53;17.50;99.90
25825;DHT22;13658;44.534;18.694;2022-10-04T12:15:10;17.50;99.90
25825;DHT22;13658;44.534;18.694;2022-10-04T12:20:50;17.50;99.90
25825;DHT22;13658;44.534;18.694;2022-10-04T12:35:52;17.60;99.90
25825;DHT22;13658;44.534;18.694;2022-10-04T12:41:23;17.70;99.90
25825;DHT22;13658;44.534;18.694;2022-10-04T12:52:23;17.90;99.90
25825;DHT22;13658;44.534;18.694;2022-10-04T12:57:54;18.00;99.90
25825;DHT22;13658;44.534;18.694;2022-10-04T13:00:24;18.00;99.90
25825;DHT22;13658;44.534;18.694;2022-10-04T13:06:46;17.90;99.90
25825;DHT22;13658;44.534;18.694;2022-10-04T13:15:18;18.00;99.90
25825;DHT22;13658;44.534;18.694;2022-10-04T13:17:58;18.00;99.90
25825;DHT22;13658;44.534;18.694;2022-10-04T13:21:23;18.00;99.90
25825;DHT22;13658;44.534;18.694;2022-10-04T13:24:36;18.00;99.90
25825;DHT22;13658;44.534;18.694;2022-10-04T13:26:52;18.00;99.90
25825;DHT22;13658;44.534;18.694;2022-10-04T13:29:47;18.00;99.90
25825;DHT22;13658;44.534;18.694;2022-10-04T13:32:47;18.10;99.90
25825;DHT22;13658;44.534;18.694;2022-10-04T13:35:32;18.20;99.90
25825;DHT22;13658;44.534;18.694;2022-10-04T13:38:21;17.90;99.90
25825;DHT22;13658;44.534;18.694;2022-10-04T14:09:12;17.60;99.90
25825;DHT22;13658;44.534;18.694;2022-10-04T14:35:02;17.30;99.90
25825;DHT22;13658;44.534;18.694;2022-10-04T14:38:06;17.30;99.90
25825;DHT22;13658;44.534;18.694;2022-10-04T14:46:57;17.30;99.90
25825;DHT22;13658;44.534;18.694;2022-10-04T14:52:04;17.20;99.90
25825;DHT22;13658;44.534;18.694;2022-10-04T14:55:12;17.00;99.90
25825;DHT22;13658;44.534;18.694;2022-10-04T15:00:21;17.00;99.90
25825;DHT22;13658;44.534;18.694;2022-10-04T15:08:41;17.00;99.90
25825;DHT22;13658;44.534;18.694;2022-10-04T15:11:15;17.00;99.90
25825;DHT22;13658;44.534;18.694;2022-10-04T15:13:54;17.00;99.90
25825;DHT22;13658;44.534;18.694;2022-10-04T15:16:44;16.90;99.90
25825;DHT22;13658;44.534;18.694;2022-10-04T15:29:29;16.80;99.90
25825;DHT22;13658;44.534;18.694;2022-10-04T15:32:25;16.80;99.90
25825;DHT22;13658;44.534;18.694;2022-10-04T15:35:19;16.60;99.90
25825;DHT22;13658;44.534;18.694;2022-10-04T15:38:00;16.60;99.90
25825;DHT22;13658;44.534;18.694;2022-10-04T15:41:04;16.40;99.90
25825;DHT22;13658;44.534;18.694;2022-10-04T15:43:40;16.40;99.90
25825;DHT22;13658;44.534;18.694;2022-10-04T15:49:51;16.20;99.90
25825;DHT22;13658;44.534;18.694;2022-10-04T16:06:51;15.60;99.90
25825;DHT22;13658;44.534;18.694;2022-10-04T16:09:21;15.50;99.90
25825;DHT22;13658;44.534;18.694;2022-10-04T16:12:16;15.40;99.90
25825;DHT22;13658;44.534;18.694;2022-10-04T16:20:05;15.20;99.90
25825;DHT22;13658;44.534;18.694;2022-10-04T16:22:39;15.10;99.90
25825;DHT22;13658;44.534;18.694;2022-10-04T16:33:34;15.00;99.90
25825;DHT22;13658;44.534;18.694;2022-10-04T16:36:17;14.90;99.90
25825;DHT22;13658;44.534;18.694;2022-10-04T16:38:56;14.90;99.90
25825;DHT22;13658;44.534;18.694;2022-10-04T16:41:57;14.90;99.90
25825;DHT22;13658;44.534;18.694;2022-10-04T16:44:35;14.80;99.90
25825;DHT22;13658;44.534;18.694;2022-10-04T16:47:31;14.80;99.90
25825;DHT22;13658;44.534;18.694;2022-10-04T16:50:00;14.70;99.90
25825;DHT22;13658;44.534;18.694;2022-10-04T16:52:45;14.70;99.90
25825;DHT22;13658;44.534;18.694;2022-10-04T17:06:55;14.70;99.90
25825;DHT22;13658;44.534;18.694;2022-10-04T17:09:29;14.70;99.90
25825;DHT22;13658;44.534;18.694;2022-10-04T17:12:00;14.70;99.90
25825;DHT22;13658;44.534;18.694;2022-10-04T17:28:33;14.40;99.90
25825;DHT22;13658;44.534;18.694;2022-10-04T17:31:00;14.50;99.90
25825;DHT22;13658;44.534;18.694;2022-10-04T17:36:43;14.30;99.90
25825;DHT22;13658;44.534;18.694;2022-10-04T17:44:59;14.00;99.90
25825;DHT22;13658;44.534;18.694;2022-10-04T17:53:23;14.00;99.90
25825;DHT22;13658;44.534;18.694;2022-10-04T17:56:11;14.00;99.90
25825;DHT22;13658;44.534;18.694;2022-10-04T17:58:53;13.90;99.90
25825;DHT22;13658;44.534;18.694;2022-10-04T18:01:35;13.80;99.90
25825;DHT22;13658;44.534;18.694;2022-10-04T18:04:12;13.80;99.90
25825;DHT22;13658;44.534;18.694;2022-10-04T18:06:48;13.80;99.90
25825;DHT22;13658;44.534;18.694;2022-10-04T18:09:21;13.80;99.90
25825;DHT22;13658;44.534;18.694;2022-10-04T18:11:55;13.70;99.90
25825;DHT22;13658;44.534;18.694;2022-10-04T18:17:07;13.80;99.90
25825;DHT22;13658;44.534;18.694;2022-10-04T18:22:17;13.80;99.90
25825;DHT22;13658;44.534;18.694;2022-10-04T18:24:45;13.70;99.90
25825;DHT22;13658;44.534;18.694;2022-10-04T18:27:16;13.70;99.90
25825;DHT22;13658;44.534;18.694;2022-10-04T18:29:56;13.70;99.90
25825;DHT22;13658;44.534;18.694;2022-10-04T18:35:23;13.70;99.90
25825;DHT22;13658;44.534;18.694;2022-10-04T18:38:02;13.60;99.90
25825;DHT22;13658;44.534;18.694;2022-10-04T18:40:41;13.60;99.90
25825;DHT22;13658;44.534;18.694;2022-10-04T18:43:32;13.50;99.90
25825;DHT22;13658;44.534;18.694;2022-10-04T18:46:17;13.50;99.90
25825;DHT22;13658;44.534;18.694;2022-10-04T18:48:54;13.50;99.90
25825;DHT22;13658;44.534;18.694;2022-10-04T18:51:25;13.40;99.90
25825;DHT22;13658;44.534;18.694;2022-10-04T18:54:24;13.30;99.90
25825;DHT22;13658;44.534;18.694;2022-10-04T18:57:18;13.10;99.90
25825;DHT22;13658;44.534;18.694;2022-10-04T19:11:02;12.80;99.90
25825;DHT22;13658;44.534;18.694;2022-10-04T19:13:50;12.80;99.90
25825;DHT22;13658;44.534;18.694;2022-10-04T19:16:31;12.80;99.90
25825;DHT22;13658;44.534;18.694;2022-10-04T19:27:33;12.50;99.90
25825;DHT22;13658;44.534;18.694;2022-10-04T19:38:05;12.40;99.90
25825;DHT22;13658;44.534;18.694;2022-10-04T19:40:44;12.30;99.90
25825;DHT22;13658;44.534;18.694;2022-10-04T19:43:17;12.20;99.90
25825;DHT22;13658;44.534;18.694;2022-10-04T19:48:47;12.00;99.90
25825;DHT22;13658;44.534;18.694;2022-10-04T19:51:58;11.90;99.90
25825;DHT22;13658;44.534;18.694;2022-10-04T19:54:34;12.00;99.90
25825;DHT22;13658;44.534;18.694;2022-10-04T19:57:12;11.80;99.90
25825;DHT22;13658;44.534;18.694;2022-10-04T19:59:39;11.70;99.90
25825;DHT22;13658;44.534;18.694;2022-10-04T20:02:12;11.70;99.90
25825;DHT22;13658;44.534;18.694;2022-10-04T20:04:38;11.70;99.90
25825;DHT22;13658;44.534;18.694;2022-10-04T20:07:19;11.70;99.90
25825;DHT22;13658;44.534;18.694;2022-10-04T20:10:40;11.60;99.90
25825;DHT22;13658;44.534;18.694;2022-10-04T20:12:43;11.50;99.90
25825;DHT22;13658;44.534;18.694;2022-10-04T20:15:43;11.40;99.90
25825;DHT22;13658;44.534;18.694;2022-10-04T20:29:07;11.20;99.90
25825;DHT22;13658;44.534;18.694;2022-10-04T20:31:51;11.10;99.90
25825;DHT22;13658;44.534;18.694;2022-10-04T20:34:47;11.10;99.90
25825;DHT22;13658;44.534;18.694;2022-10-04T20:37:14;11.00;99.90
25825;DHT22;13658;44.534;18.694;2022-10-04T20:45:19;10.60;99.90
25825;DHT22;13658;44.534;18.694;2022-10-04T20:47:55;10.50;99.90
25825;DHT22;13658;44.534;18.694;2022-10-04T20:50:30;10.50;99.90
25825;DHT22;13658;44.534;18.694;2022-10-04T20:55:45;10.30;99.90
25825;DHT22;13658;44.534;18.694;2022-10-04T20:58:26;10.30;99.90
25825;DHT22;13658;44.534;18.694;2022-10-04T21:00:55;10.20;99.90
25825;DHT22;13658;44.534;18.694;2022-10-04T21:03:23;10.20;99.90
25825;DHT22;13658;44.534;18.694;2022-10-04T21:06:04;10.20;99.90
25825;DHT22;13658;44.534;18.694;2022-10-04T21:08:31;10.20;99.90
25825;DHT22;13658;44.534;18.694;2022-10-04T21:13:41;10.20;99.90
25825;DHT22;13658;44.534;18.694;2022-10-04T21:16:08;10.10;99.90
25825;DHT22;13658;44.534;18.694;2022-10-04T21:18:34;9.90;99.90
25825;DHT22;13658;44.534;18.694;2022-10-04T21:21:00;9.90;99.90
25825;DHT22;13658;44.534;18.694;2022-10-04T21:23:28;9.70;99.90
25825;DHT22;13658;44.534;18.694;2022-10-04T21:26:23;9.70;99.90
25825;DHT22;13658;44.534;18.694;2022-10-04T21:31:18;9.70;99.90
25825;DHT22;13658;44.534;18.694;2022-10-04T21:33:44;9.70;99.90
25825;DHT22;13658;44.534;18.694;2022-10-04T21:36:10;9.80;99.90
25825;DHT22;13658;44.534;18.694;2022-10-04T21:38:36;9.80;99.90
25825;DHT22;13658;44.534;18.694;2022-10-04T21:41:02;9.70;99.90
25825;DHT22;13658;44.534;18.694;2022-10-04T21:43:28;9.50;99.90
25825;DHT22;13658;44.534;18.694;2022-10-04T21:45:54;9.40;99.90
25825;DHT22;13658;44.534;18.694;2022-10-04T21:48:21;9.30;99.90
25825;DHT22;13658;44.534;18.694;2022-10-04T21:50:51;9.20;99.90
25825;DHT22;13658;44.534;18.694;2022-10-04T21:53:18;9.20;99.90
25825;DHT22;13658;44.534;18.694;2022-10-04T21:55:44;9.20;99.90
25825;DHT22;13658;44.534;18.694;2022-10-04T21:58:10;9.00;99.90
25825;DHT22;13658;44.534;18.694;2022-10-04T22:00:36;9.10;99.90
25825;DHT22;13658;44.534;18.694;2022-10-04T22:03:03;9.20;99.90
25825;DHT22;13658;44.534;18.694;2022-10-04T22:05:29;9.10;99.90
25825;DHT22;13658;44.534;18.694;2022-10-04T22:07:55;9.10;99.90
25825;DHT22;13658;44.534;18.694;2022-10-04T22:10:23;9.10;99.90
25825;DHT22;13658;44.534;18.694;2022-10-04T22:12:49;8.80;99.90
25825;DHT22;13658;44.534;18.694;2022-10-04T22:15:15;8.70;99.90
25825;DHT22;13658;44.534;18.694;2022-10-04T22:17:41;8.60;99.90
25825;DHT22;13658;44.534;18.694;2022-10-04T22:20:07;8.60;99.90
25825;DHT22;13658;44.534;18.694;2022-10-04T22:22:34;8.60;99.90
25825;DHT22;13658;44.534;18.694;2022-10-04T22:25:00;8.50;99.90
25825;DHT22;13658;44.534;18.694;2022-10-04T22:27:27;8.30;99.90
25825;DHT22;13658;44.534;18.694;2022-10-04T22:29:55;8.30;99.90
25825;DHT22;13658;44.534;18.694;2022-10-04T22:32:26;8.20;99.90
25825;DHT22;13658;44.534;18.694;2022-10-04T22:35:12;8.20;99.90
25825;DHT22;13658;44.534;18.694;2022-10-04T22:37:38;8.40;99.90
25825;DHT22;13658;44.534;18.694;2022-10-04T22:40:10;8.40;99.90
25825;DHT22;13658;44.534;18.694;2022-10-04T22:42:38;8.20;99.90
25825;DHT22;13658;44.534;18.694;2022-10-04T22:45:07;8.10;99.90
25825;DHT22;13658;44.534;18.694;2022-10-04T22:47:34;8.10;99.90
25825;DHT22;13658;44.534;18.694;2022-10-04T22:50:00;8.00;99.90
25825;DHT22;13658;44.534;18.694;2022-10-04T22:52:27;8.00;99.90
25825;DHT22;13658;44.534;18.694;2022-10-04T22:54:56;8.10;99.90
25825;DHT22;13658;44.534;18.694;2022-10-04T22:57:25;8.10;99.90
25825;DHT22;13658;44.534;18.694;2022-10-04T22:59:51;8.10;99.90
25825;DHT22;13658;44.534;18.694;2022-10-04T23:02:21;8.00;99.90
25825;DHT22;13658;44.534;18.694;2022-10-04T23:05:17;8.00;99.90
25825;DHT22;13658;44.534;18.694;2022-10-04T23:07:45;8.00;99.90
25825;DHT22;13658;44.534;18.694;2022-10-04T23:10:13;7.90;99.90
25825;DHT22;13658;44.534;18.694;2022-10-04T23:12:39;7.90;99.90
25825;DHT22;13658;44.534;18.694;2022-10-04T23:15:17;7.90;99.90
25825;DHT22;13658;44.534;18.694;2022-10-04T23:17:44;8.00;99.90
25825;DHT22;13658;44.534;18.694;2022-10-04T23:22:47;7.60;99.90
25825;DHT22;13658;44.534;18.694;2022-10-04T23:25:20;7.60;99.90
25825;DHT22;13658;44.534;18.694;2022-10-04T23:27:48;7.70;99.90
25825;DHT22;13658;44.534;18.694;2022-10-04T23:30:16;7.80;99.90
25825;DHT22;13658;44.534;18.694;2022-10-04T23:32:44;7.70;99.90
25825;DHT22;13658;44.534;18.694;2022-10-04T23:35:18;7.60;99.90
25825;DHT22;13658;44.534;18.694;2022-10-04T23:37:45;7.50;99.90
25825;DHT22;13658;44.534;18.694;2022-10-04T23:40:15;7.60;99.90
25825;DHT22;13658;44.534;18.694;2022-10-04T23:42:42;7.60;99.90
25825;DHT22;13658;44.534;18.694;2022-10-04T23:45:28;7.60;99.90
25825;DHT22;13658;44.534;18.694;2022-10-04T23:47:56;7.60;99.90
25825;DHT22;13658;44.534;18.694;2022-10-04T23:50:26;7.50;99.90
25825;DHT22;13658;44.534;18.694;2022-10-04T23:52:55;7.40;99.90
25825;DHT22;13658;44.534;18.694;2022-10-04T23:55:26;7.20;99.90
25825;DHT22;13658;44.534;18.694;2022-10-04T23:57:53;7.20;99.90
